createdAt,value
2022-08-24T00:00:59.135Z,17.33
2022-08-24T00:03:55.333Z,17.33
2022-08-24T00:06:44.149Z,17.31
2022-08-24T00:09:24.160Z,17.30
2022-08-24T00:12:18.149Z,17.28
2022-08-24T00:15:13.165Z,17.27
2022-08-24T00:18:00.167Z,17.27
2022-08-24T00:20:33.222Z,17.30
2022-08-24T00:23:20.177Z,17.31
2022-08-24T00:25:53.237Z,17.33
2022-08-24T00:28:40.179Z,17.35
2022-08-24T00:31:20.249Z,17.36
2022-08-24T00:34:14.178Z,17.37
2022-08-24T00:37:01.159Z,17.36
2022-08-24T00:39:34.260Z,17.37
2022-08-24T00:42:21.189Z,17.37
2022-08-24T00:44:54.261Z,17.38
2022-08-24T00:48:13.187Z,17.39
2022-08-24T00:50:49.253Z,17.41
2022-08-24T00:53:41.150Z,17.42
2022-08-24T00:56:25.191Z,17.43
2022-08-24T00:59:26.184Z,17.44
2022-08-24T01:02:24.265Z,17.47
2022-08-24T01:05:15.169Z,17.47
2022-08-24T01:07:57.236Z,17.46
2022-08-24T01:10:53.169Z,17.44
2022-08-24T01:13:33.194Z,17.44
2022-08-24T01:16:21.265Z,17.44
2022-08-24T01:19:01.193Z,17.46
2022-08-24T01:21:59.196Z,17.43
2022-08-24T01:24:32.278Z,17.46
2022-08-24T01:27:24.868Z,17.47
2022-08-24T01:30:11.208Z,17.50
2022-08-24T01:33:14.204Z,17.50
2022-08-24T01:36:33.212Z,17.50
2022-08-24T01:39:22.213Z,17.51
2022-08-24T01:42:09.215Z,17.52
2022-08-24T01:44:45.325Z,17.54
2022-08-24T01:47:32.206Z,17.56
2022-08-24T01:50:05.297Z,17.60
2022-08-24T01:53:05.038Z,17.61
2022-08-24T01:55:39.301Z,17.61
2022-08-24T01:58:26.201Z,17.63
2022-08-24T02:00:59.284Z,17.63
2022-08-24T02:03:46.214Z,17.65
2022-08-24T02:06:22.308Z,17.64
2022-08-24T02:09:09.217Z,17.62
2022-08-24T02:11:44.271Z,17.59
2022-08-24T02:14:32.968Z,17.57
2022-08-24T02:17:07.328Z,17.56
2022-08-24T02:19:54.245Z,17.57
2022-08-24T02:22:34.265Z,17.57
2022-08-24T02:25:29.248Z,17.57
2022-08-24T02:28:23.233Z,17.58
2022-08-24T02:31:19.246Z,17.58
2022-08-24T02:34:06.237Z,17.56
2022-08-24T02:36:46.216Z,17.56
2022-08-24T02:39:40.238Z,17.57
2022-08-24T02:42:27.244Z,17.57
2022-08-24T02:45:07.269Z,17.57
2022-08-24T02:47:54.224Z,17.57
2022-08-24T02:50:34.229Z,17.55
2022-08-24T02:53:23.254Z,17.58
2022-08-24T02:55:57.303Z,17.59
2022-08-24T02:58:45.257Z,17.59
2022-08-24T03:01:27.254Z,17.60
2022-08-24T03:04:17.321Z,17.59
2022-08-24T03:06:50.347Z,17.60
2022-08-24T03:09:40.373Z,17.61
2022-08-24T03:12:13.369Z,17.61
2022-08-24T03:15:00.305Z,17.61
2022-08-24T03:17:40.302Z,17.61
2022-08-24T03:20:30.300Z,17.61
2022-08-24T03:23:04.381Z,17.62
2022-08-24T03:25:51.322Z,17.63
2022-08-24T03:28:33.247Z,17.64
2022-08-24T03:31:27.330Z,17.64
2022-08-24T03:34:14.293Z,17.67
2022-08-24T03:36:57.321Z,17.72
2022-08-24T03:39:54.318Z,17.76
2022-08-24T03:42:43.256Z,17.81
2022-08-24T03:45:19.370Z,17.84
2022-08-24T03:48:06.289Z,17.88
2022-08-24T03:50:39.366Z,17.93
2022-08-24T03:53:26.300Z,17.97
2022-08-24T03:55:59.693Z,17.99
2022-08-24T03:58:54.300Z,18.00
2022-08-24T04:01:27.650Z,18.02
2022-08-24T04:04:17.001Z,18.00
2022-08-24T04:06:50.380Z,18.01
2022-08-24T04:09:37.323Z,18.04
2022-08-24T04:12:11.471Z,18.08
2022-08-24T04:14:59.319Z,18.11
2022-08-24T04:17:32.381Z,18.18
2022-08-24T04:20:19.324Z,18.21
2022-08-24T04:22:53.508Z,18.25
2022-08-24T04:25:49.321Z,18.29
2022-08-24T04:28:24.451Z,18.31
2022-08-24T04:31:21.483Z,18.34
2022-08-24T04:34:15.322Z,18.37
2022-08-24T04:37:11.436Z,18.39
2022-08-24T04:40:05.445Z,18.41
2022-08-24T04:42:59.333Z,18.44
2022-08-24T04:45:48.401Z,18.46
2022-08-24T04:48:22.678Z,18.47
2022-08-24T04:51:15.361Z,18.48
2022-08-24T04:53:48.421Z,18.50
2022-08-24T04:56:35.324Z,18.51
2022-08-24T04:59:08.502Z,18.53
2022-08-24T05:01:55.435Z,18.55
2022-08-24T05:04:28.559Z,18.56
2022-08-24T05:07:19.331Z,18.58
2022-08-24T05:09:59.370Z,18.59
2022-08-24T05:12:55.783Z,18.58
2022-08-24T05:15:42.348Z,18.59
2022-08-24T05:18:15.398Z,18.61
2022-08-24T05:21:02.395Z,18.62
2022-08-24T05:23:43.986Z,18.63
2022-08-24T05:26:34.359Z,18.64
2022-08-24T05:29:15.388Z,18.65
2022-08-24T05:32:09.397Z,18.67
2022-08-24T05:35:03.375Z,18.69
2022-08-24T05:37:50.354Z,18.69
2022-08-24T05:40:30.610Z,18.69
2022-08-24T05:43:21.375Z,18.69
2022-08-24T05:46:01.366Z,18.70
2022-08-24T05:48:52.600Z,18.72
2022-08-24T05:51:36.362Z,18.72
2022-08-24T05:54:27.372Z,18.72
2022-08-24T05:57:04.835Z,18.74
2022-08-24T05:59:53.370Z,18.73
2022-08-24T06:02:36.485Z,18.74
2022-08-24T06:05:24.407Z,18.74
2022-08-24T06:07:57.457Z,18.76
2022-08-24T06:10:54.387Z,18.75
2022-08-24T06:13:27.585Z,18.75
2022-08-24T06:16:21.832Z,18.76
2022-08-24T06:18:56.472Z,18.77
2022-08-24T06:21:45.377Z,18.77
2022-08-24T06:24:19.448Z,18.79
2022-08-24T06:27:24.411Z,18.80
2022-08-24T06:30:09.661Z,18.82
2022-08-24T06:32:56.404Z,18.82
2022-08-24T06:35:37.374Z,18.81
2022-08-24T06:38:33.380Z,18.81
2022-08-24T06:41:28.418Z,18.82
2022-08-24T06:44:49.370Z,18.81
2022-08-24T06:47:29.386Z,18.82
2022-08-24T06:53:21.380Z,18.86
2022-08-24T06:56:15.923Z,18.86
2022-08-24T06:59:10.411Z,18.87
2022-08-24T07:02:04.486Z,18.88
2022-08-24T07:04:54.407Z,18.89
2022-08-24T07:07:34.405Z,18.92
2022-08-24T07:10:22.044Z,18.94
2022-08-24T07:13:03.536Z,18.97
2022-08-24T07:15:58.454Z,19.02
2022-08-24T07:18:49.304Z,19.08
2022-08-24T07:21:28.297Z,19.08
2022-08-24T07:24:09.387Z,19.08
2022-08-24T07:26:51.524Z,19.09
2022-08-24T07:29:47.313Z,19.09
2022-08-24T07:32:45.414Z,19.10
2022-08-24T07:35:41.410Z,19.11
2022-08-24T07:38:28.428Z,19.11
2022-08-24T07:41:36.641Z,19.11
2022-08-24T07:44:18.470Z,19.10
2022-08-24T07:47:15.133Z,19.12
2022-08-24T07:50:01.394Z,19.11
2022-08-24T07:52:42.638Z,19.10
2022-08-24T07:55:22.411Z,19.10
2022-08-24T07:58:02.418Z,19.10
2022-08-24T08:00:36.453Z,19.11
2022-08-24T08:03:23.467Z,19.14
2022-08-24T08:06:05.474Z,19.16
2022-08-24T08:08:52.410Z,19.19
2022-08-24T08:11:32.422Z,19.19
2022-08-24T08:14:26.414Z,19.22
2022-08-24T08:17:21.468Z,19.23
2022-08-24T08:20:08.422Z,19.22
2022-08-24T08:23:01.241Z,19.24
2022-08-24T08:25:48.451Z,19.25
2022-08-24T08:28:25.895Z,19.26
2022-08-24T08:31:20.487Z,19.28
2022-08-24T08:34:14.436Z,19.30
2022-08-24T08:37:01.466Z,19.29
2022-08-24T08:39:34.540Z,19.32
2022-08-24T08:42:54.454Z,19.34
2022-08-24T08:46:04.524Z,19.35
2022-08-24T08:49:13.458Z,19.36
2022-08-24T08:52:36.444Z,19.37
2022-08-24T08:55:47.465Z,19.40
2022-08-24T08:58:48.441Z,19.43
2022-08-24T09:01:46.754Z,19.44
2022-08-24T09:05:10.460Z,19.43
2022-08-24T09:08:02.478Z,19.43
2022-08-24T09:11:08.556Z,19.45
2022-08-24T09:14:20.474Z,19.45
2022-08-24T09:17:31.549Z,19.46
2022-08-24T09:20:30.454Z,19.49
2022-08-24T09:23:32.538Z,19.50
2022-08-24T09:26:34.458Z,19.53
2022-08-24T09:29:19.554Z,19.57
2022-08-24T09:32:34.462Z,19.63
2022-08-24T09:35:29.468Z,19.65
2022-08-24T09:38:05.551Z,19.70
2022-08-24T09:41:17.484Z,19.75
2022-08-24T09:44:03.573Z,19.79
2022-08-24T09:47:02.480Z,19.84
2022-08-24T09:50:01.466Z,19.89
2022-08-24T09:53:29.469Z,19.98
2022-08-24T09:56:46.498Z,20.02
2022-08-24T09:59:41.544Z,20.03
2022-08-24T10:02:39.592Z,20.07
2022-08-24T10:05:49.626Z,20.05
2022-08-24T10:08:49.778Z,20.03
2022-08-24T10:12:05.510Z,20.00
2022-08-24T10:14:38.576Z,19.98
2022-08-24T10:17:46.484Z,19.96
2022-08-24T10:20:36.507Z,19.94
2022-08-24T10:23:33.485Z,19.93
2022-08-24T10:26:35.486Z,19.89
2022-08-24T10:29:25.653Z,19.87
2022-08-24T10:32:34.478Z,19.86
2022-08-24T10:35:23.515Z,19.86
2022-08-24T10:39:32.484Z,19.86
2022-08-24T10:42:50.517Z,19.84
2022-08-24T10:46:01.531Z,19.80
2022-08-24T10:48:51.604Z,19.84
2022-08-24T10:52:17.546Z,19.86
2022-08-24T10:54:51.611Z,19.90
2022-08-24T10:57:46.498Z,19.93
2022-08-24T11:00:23.405Z,20.00
2022-08-24T11:03:16.507Z,20.06
2022-08-24T11:06:03.544Z,20.14
2022-08-24T11:08:38.625Z,20.18
2022-08-24T11:11:51.523Z,20.20
2022-08-24T11:14:35.610Z,20.21
2022-08-24T11:17:25.521Z,20.23
2022-08-24T11:20:05.526Z,20.51
2022-08-24T11:24:04.446Z,20.48
2022-08-24T11:27:02.455Z,20.50
2022-08-24T11:30:07.749Z,20.54
2022-08-24T11:33:03.481Z,20.74
2022-08-24T11:35:53.731Z,20.73
2022-08-24T11:38:47.475Z,20.71
2022-08-24T11:41:53.527Z,20.67
2022-08-24T11:44:52.462Z,20.61
2022-08-24T11:47:44.459Z,20.60
2022-08-24T11:51:01.473Z,20.55
2022-08-24T11:54:11.508Z,20.52
2022-08-24T11:56:57.809Z,20.52
2022-08-24T12:00:14.466Z,20.60
2022-08-24T12:03:16.610Z,20.61
2022-08-24T12:06:51.472Z,20.63
2022-08-24T12:09:52.481Z,20.63
2022-08-24T12:12:48.494Z,20.65
2022-08-24T12:15:52.251Z,20.65
2022-08-24T12:18:51.484Z,20.67
2022-08-24T12:21:39.473Z,20.67
2022-08-24T12:24:13.170Z,20.69
2022-08-24T12:27:10.495Z,20.68
2022-08-24T12:29:56.492Z,20.74
2022-08-24T12:32:48.491Z,20.78
2022-08-24T12:35:58.489Z,20.84
2022-08-24T12:38:57.487Z,20.91
2022-08-24T12:42:14.585Z,20.95
2022-08-24T12:45:07.485Z,20.96
2022-08-24T12:48:03.931Z,21.00
2022-08-24T12:51:20.506Z,21.01
2022-08-24T12:54:24.846Z,21.07
2022-08-24T12:57:11.497Z,21.11
2022-08-24T13:00:00.491Z,21.19
2022-08-24T13:02:56.537Z,21.24
2022-08-24T13:05:52.504Z,21.28
2022-08-24T13:08:42.629Z,21.32
2022-08-24T13:11:40.507Z,21.34
2022-08-24T13:14:28.618Z,21.40
2022-08-24T13:17:18.521Z,21.43
2022-08-24T13:20:20.505Z,21.45
2022-08-24T13:23:26.515Z,21.46
2022-08-24T13:26:34.502Z,21.46
2022-08-24T13:29:07.610Z,21.48
2022-08-24T13:32:02.507Z,21.47
2022-08-24T13:34:55.538Z,21.48
2022-08-24T13:37:43.524Z,21.49
2022-08-24T13:40:29.938Z,21.51
2022-08-24T13:43:41.538Z,21.52
2022-08-24T13:46:33.630Z,21.54
2022-08-24T13:49:46.191Z,21.57
2022-08-24T13:52:48.224Z,21.60
2022-08-24T13:55:41.533Z,21.64
2022-08-24T13:58:38.535Z,21.64
2022-08-24T14:01:30.642Z,21.67
2022-08-24T14:04:10.610Z,21.69
2022-08-24T14:07:26.569Z,21.73
2022-08-24T14:10:26.547Z,21.75
2022-08-24T14:13:55.565Z,21.76
2022-08-24T14:17:35.281Z,21.77
2022-08-24T14:20:22.081Z,21.79
2022-08-24T14:23:30.586Z,21.82
2022-08-24T14:26:40.778Z,21.81
2022-08-24T14:29:37.565Z,21.84
2022-08-24T14:32:12.096Z,21.87
2022-08-24T14:35:12.556Z,21.88
2022-08-24T14:38:23.706Z,21.87
2022-08-24T14:41:24.546Z,21.89
2022-08-24T14:44:21.540Z,21.90
2022-08-24T14:47:20.569Z,21.90
2022-08-24T14:50:13.124Z,21.93
2022-08-24T14:53:14.570Z,21.95
2022-08-24T14:56:27.575Z,21.95
2022-08-24T14:59:53.566Z,21.93
2022-08-24T15:02:58.566Z,21.94
2022-08-24T15:06:27.193Z,21.94
2022-08-24T15:09:34.580Z,21.91
2022-08-24T15:12:40.588Z,21.90
2022-08-24T15:15:30.628Z,21.91
2022-08-24T15:18:09.760Z,21.93
2022-08-24T15:21:06.596Z,21.96
2022-08-24T15:24:27.573Z,21.99
2022-08-24T15:27:37.600Z,21.99
2022-08-24T15:30:29.592Z,22.00
2022-08-24T15:33:19.711Z,22.01
2022-08-24T15:36:22.592Z,22.00
2022-08-24T15:39:02.610Z,22.01
2022-08-24T15:41:56.592Z,22.01
2022-08-24T15:44:44.610Z,22.02
2022-08-24T15:47:27.708Z,22.02
2022-08-24T15:50:28.603Z,22.00
2022-08-24T15:53:06.727Z,21.99
2022-08-24T15:55:55.603Z,22.00
2022-08-24T15:58:41.623Z,21.98
2022-08-24T16:01:56.597Z,21.96
2022-08-24T16:04:50.636Z,21.93
2022-08-24T16:07:37.635Z,21.93
2022-08-24T16:10:45.650Z,21.93
2022-08-24T16:13:38.618Z,21.93
2022-08-24T16:16:15.723Z,21.94
2022-08-24T16:19:08.657Z,21.93
2022-08-24T16:21:51.062Z,21.94
2022-08-24T16:24:45.631Z,21.92
2022-08-24T16:27:22.739Z,21.92
2022-08-24T16:30:28.665Z,21.92
2022-08-24T16:33:10.626Z,21.92
2022-08-24T16:36:05.604Z,21.92
2022-08-24T16:38:55.644Z,21.92
2022-08-24T16:41:31.694Z,21.93
2022-08-24T16:44:18.644Z,21.95
2022-08-24T16:46:51.712Z,21.95
2022-08-24T16:49:40.617Z,21.95
2022-08-24T16:52:14.716Z,21.96
2022-08-24T16:55:01.660Z,21.95
2022-08-24T16:57:38.266Z,21.94
2022-08-24T17:00:25.651Z,21.95
2022-08-24T17:02:59.075Z,21.95
2022-08-24T17:05:45.642Z,21.90
2022-08-24T17:08:26.643Z,21.85
2022-08-24T17:11:13.662Z,21.79
2022-08-24T17:13:50.156Z,21.76
2022-08-24T17:16:38.728Z,21.72
2022-08-24T17:19:17.760Z,21.66
2022-08-24T17:22:04.645Z,21.63
2022-08-24T17:24:38.795Z,21.61
2022-08-24T17:27:27.659Z,21.57
2022-08-24T17:30:00.772Z,21.54
2022-08-24T17:32:47.658Z,21.50
2022-08-24T17:35:21.282Z,21.47
2022-08-24T17:38:07.666Z,21.44
2022-08-24T17:40:48.664Z,21.41
2022-08-24T17:43:42.665Z,21.38
2022-08-24T17:46:29.687Z,21.35
2022-08-24T17:49:03.757Z,21.33
2022-08-24T17:51:51.724Z,21.31
2022-08-24T17:54:28.388Z,21.28
2022-08-24T17:57:18.688Z,21.24
2022-08-24T17:59:52.943Z,21.21
2022-08-24T18:02:41.685Z,21.18
2022-08-24T18:05:23.678Z,21.17
2022-08-24T18:08:17.694Z,21.13
2022-08-24T18:11:05.738Z,21.12
2022-08-24T18:13:38.782Z,21.11
2022-08-24T18:16:28.796Z,21.09
2022-08-24T18:19:09.685Z,21.08
2022-08-24T18:22:03.715Z,21.06
2022-08-24T18:24:51.685Z,21.05
2022-08-24T18:27:31.816Z,21.03
2022-08-24T18:30:25.232Z,20.99
2022-08-24T18:33:04.506Z,20.99
2022-08-24T18:35:53.713Z,20.95
2022-08-24T18:38:29.798Z,20.94
2022-08-24T18:41:16.714Z,20.92
2022-08-24T18:43:49.798Z,20.92
2022-08-24T18:46:37.716Z,20.89
2022-08-24T18:49:18.718Z,20.86
2022-08-24T18:52:13.714Z,20.84
2022-08-24T18:55:00.719Z,20.80
2022-08-24T18:57:33.818Z,20.76
2022-08-24T19:00:20.731Z,20.69
2022-08-24T19:02:53.822Z,20.64
2022-08-24T19:05:40.711Z,20.57
2022-08-24T19:08:18.812Z,20.50
2022-08-24T19:11:05.720Z,20.44
2022-08-24T19:13:46.746Z,20.39
2022-08-24T19:16:40.789Z,20.33
2022-08-24T19:19:34.741Z,20.28
2022-08-24T19:22:30.722Z,20.21
2022-08-24T19:25:28.730Z,20.16
2022-08-24T19:28:01.838Z,20.14
2022-08-24T19:30:48.728Z,20.09
2022-08-24T19:33:29.817Z,20.05
2022-08-24T19:36:16.735Z,20.02
2022-08-24T19:38:49.822Z,19.97
2022-08-24T19:41:37.142Z,19.93
2022-08-24T19:44:31.355Z,19.90
2022-08-24T19:47:18.765Z,19.88
2022-08-24T19:49:58.723Z,19.85
2022-08-24T19:52:46.761Z,19.81
2022-08-24T19:55:27.744Z,19.79
2022-08-24T19:58:39.779Z,19.78
2022-08-24T20:01:29.794Z,19.79
2022-08-24T20:04:09.743Z,19.79
2022-08-24T20:07:03.758Z,19.80
2022-08-24T20:09:57.740Z,19.79
2022-08-24T20:12:52.777Z,19.81
2022-08-24T20:15:39.753Z,19.81
2022-08-24T20:18:12.875Z,19.84
2022-08-24T20:20:59.808Z,19.83
2022-08-24T20:23:33.888Z,19.86
2022-08-24T20:26:20.787Z,19.85
2022-08-24T20:28:59.057Z,19.86
2022-08-24T20:31:46.854Z,19.86
2022-08-24T20:34:23.987Z,19.85
2022-08-24T20:37:10.767Z,19.84
2022-08-24T20:39:51.829Z,19.84
2022-08-24T20:42:38.780Z,19.83
2022-08-24T20:45:19.795Z,19.80
2022-08-24T20:48:06.765Z,19.80
2022-08-24T20:50:46.779Z,19.79
2022-08-24T20:53:40.782Z,19.78
2022-08-24T20:56:32.778Z,19.77
2022-08-24T20:59:09.904Z,19.76
2022-08-24T21:01:56.792Z,19.76
2022-08-24T21:04:30.056Z,19.76
2022-08-24T21:07:18.786Z,19.73
2022-08-24T21:09:51.939Z,19.72
2022-08-24T21:12:38.809Z,19.70
2022-08-24T21:15:13.572Z,19.70
2022-08-24T21:18:00.806Z,19.67
2022-08-24T21:20:34.529Z,19.67
2022-08-24T21:23:20.811Z,19.67
2022-08-24T21:26:00.813Z,19.66
2022-08-24T21:28:56.795Z,19.65
2022-08-24T21:31:44.810Z,19.63
2022-08-24T21:34:36.724Z,19.61
2022-08-24T21:37:25.824Z,19.55
2022-08-24T21:40:06.895Z,19.51
2022-08-24T21:43:00.822Z,19.47
2022-08-24T21:45:48.819Z,19.44
2022-08-24T21:48:22.889Z,19.41
2022-08-24T21:51:09.812Z,19.37
2022-08-24T21:53:42.885Z,19.35
2022-08-24T21:56:33.826Z,19.29
2022-08-24T21:59:14.826Z,19.27
2022-08-24T22:02:08.869Z,19.23
2022-08-24T22:05:07.827Z,19.20
2022-08-24T22:07:54.817Z,19.16
2022-08-24T22:10:27.895Z,19.16
2022-08-24T22:13:14.832Z,19.13
2022-08-24T22:15:51.011Z,19.14
2022-08-24T22:18:37.847Z,19.14
2022-08-24T22:21:20.833Z,19.14
2022-08-24T22:24:14.847Z,19.13
2022-08-24T22:27:01.816Z,19.12
2022-08-24T22:29:42.855Z,19.12
2022-08-24T22:32:30.844Z,19.11
2022-08-24T22:35:10.848Z,19.09
2022-08-24T22:38:04.842Z,19.04
2022-08-24T22:40:58.815Z,19.02
2022-08-24T22:44:04.847Z,18.99
2022-08-24T22:46:39.325Z,18.94
2022-08-24T22:49:28.859Z,18.90
2022-08-24T22:52:02.950Z,18.87
2022-08-24T22:54:49.858Z,18.84
2022-08-24T22:57:22.938Z,18.82
2022-08-24T23:00:11.848Z,18.80
2022-08-24T23:02:56.858Z,18.80
2022-08-24T23:05:50.861Z,18.76
2022-08-24T23:08:37.869Z,18.73
2022-08-24T23:11:10.961Z,18.70
2022-08-24T23:13:57.862Z,18.66
2022-08-24T23:16:32.962Z,18.66
2022-08-24T23:19:40.905Z,18.64
2022-08-24T23:22:25.899Z,18.66
2022-08-24T23:25:22.855Z,18.66
2022-08-24T23:28:09.885Z,18.62
2022-08-24T23:30:49.926Z,18.63
2022-08-24T23:33:43.893Z,18.61
2022-08-24T23:36:32.882Z,18.57
2022-08-24T23:39:06.021Z,18.55
2022-08-24T23:41:52.883Z,18.53
2022-08-24T23:44:29.991Z,18.51
2022-08-24T23:47:16.904Z,18.51
2022-08-24T23:49:51.013Z,18.49
2022-08-24T23:52:37.884Z,18.49
2022-08-24T23:55:21.109Z,18.48
2022-08-24T23:58:08.868Z,18.46
